sensor_id;sensor_type;location;lat;lon;timestamp;pressure;altitude;pressure_sealevel;temperature;humidity
11487;BME280;10510;47.942;9.442;2022-11-02T00:01:56;95229.38;;;6.63;100.00
11487;BME280;10510;47.942;9.442;2022-11-02T00:03:56;95231.81;;;6.64;100.00
11487;BME280;10510;47.942;9.442;2022-11-02T00:05:57;95232.50;;;6.66;100.00
11487;BME280;10510;47.942;9.442;2022-11-02T00:07:57;95232.06;;;6.71;100.00
11487;BME280;10510;47.942;9.442;2022-11-02T00:09:57;95235.03;;;6.76;100.00
11487;BME280;10510;47.942;9.442;2022-11-02T00:11:58;95232.81;;;6.81;100.00
11487;BME280;10510;47.942;9.442;2022-11-02T00:13:58;95236.75;;;6.85;100.00
11487;BME280;10510;47.942;9.442;2022-11-02T00:16:03;95228.84;;;6.87;100.00
11487;BME280;10510;47.942;9.442;2022-11-02T00:18:07;95234.72;;;6.89;100.00
11487;BME280;10510;47.942;9.442;2022-11-02T00:20:09;95234.72;;;6.89;100.00
11487;BME280;10510;47.942;9.442;2022-11-02T00:22:11;95243.44;;;6.88;100.00
11487;BME280;10510;47.942;9.442;2022-11-02T00:24:12;95229.66;;;6.87;100.00
11487;BME280;10510;47.942;9.442;2022-11-02T00:26:12;95237.44;;;6.87;100.00
11487;BME280;10510;47.942;9.442;2022-11-02T00:28:13;95242.50;;;6.89;100.00
11487;BME280;10510;47.942;9.442;2022-11-02T00:30:14;95250.94;;;6.91;100.00
11487;BME280;10510;47.942;9.442;2022-11-02T00:32:14;95255.50;;;6.89;100.00
11487;BME280;10510;47.942;9.442;2022-11-02T00:34:14;95253.56;;;6.91;100.00
11487;BME280;10510;47.942;9.442;2022-11-02T00:36:15;95250.31;;;6.89;100.00
11487;BME280;10510;47.942;9.442;2022-11-02T00:38:16;95256.44;;;6.88;100.00
11487;BME280;10510;47.942;9.442;2022-11-02T00:40:16;95264.22;;;6.88;100.00
11487;BME280;10510;47.942;9.442;2022-11-02T00:42:17;95260.16;;;6.85;100.00
11487;BME280;10510;47.942;9.442;2022-11-02T00:44:17;95260.00;;;6.87;100.00
11487;BME280;10510;47.942;9.442;2022-11-02T00:46:17;95259.34;;;6.85;100.00
11487;BME280;10510;47.942;9.442;2022-11-02T00:48:19;95263.03;;;6.82;100.00
11487;BME280;10510;47.942;9.442;2022-11-02T00:50:19;95270.00;;;6.81;100.00
11487;BME280;10510;47.942;9.442;2022-11-02T00:52:19;95269.38;;;6.79;100.00
11487;BME280;10510;47.942;9.442;2022-11-02T00:54:20;95264.28;;;6.78;100.00
11487;BME280;10510;47.942;9.442;2022-11-02T00:56:20;95264.59;;;6.75;100.00
11487;BME280;10510;47.942;9.442;2022-11-02T00:58:20;95271.69;;;6.73;100.00
11487;BME280;10510;47.942;9.442;2022-11-02T01:00:21;95278.00;;;6.70;100.00
11487;BME280;10510;47.942;9.442;2022-11-02T01:02:21;95268.88;;;6.66;100.00
11487;BME280;10510;47.942;9.442;2022-11-02T01:04:21;95267.66;;;6.60;100.00
11487;BME280;10510;47.942;9.442;2022-11-02T01:06:22;95265.50;;;6.56;100.00
11487;BME280;10510;47.942;9.442;2022-11-02T01:08:22;95274.41;;;6.53;100.00
11487;BME280;10510;47.942;9.442;2022-11-02T01:10:22;95275.50;;;6.51;100.00
11487;BME280;10510;47.942;9.442;2022-11-02T01:12:25;95276.59;;;6.48;100.00
11487;BME280;10510;47.942;9.442;2022-11-02T01:14:25;95272.66;;;6.44;100.00
11487;BME280;10510;47.942;9.442;2022-11-02T01:16:26;95277.97;;;6.43;100.00
11487;BME280;10510;47.942;9.442;2022-11-02T01:18:26;95275.91;;;6.46;100.00
11487;BME280;10510;47.942;9.442;2022-11-02T01:20:26;95265.25;;;6.49;100.00
11487;BME280;10510;47.942;9.442;2022-11-02T01:22:27;95283.00;;;6.54;100.00
11487;BME280;10510;47.942;9.442;2022-11-02T01:24:28;95276.13;;;6.63;100.00
11487;BME280;10510;47.942;9.442;2022-11-02T01:26:29;95277.63;;;6.65;100.00
11487;BME280;10510;47.942;9.442;2022-11-02T01:28:29;95283.47;;;6.67;100.00
11487;BME280;10510;47.942;9.442;2022-11-02T01:30:30;95275.69;;;6.67;100.00
11487;BME280;10510;47.942;9.442;2022-11-02T01:32:30;95282.25;;;6.71;100.00
11487;BME280;10510;47.942;9.442;2022-11-02T01:34:30;95284.41;;;6.76;100.00
11487;BME280;10510;47.942;9.442;2022-11-02T01:36:31;95276.31;;;6.79;100.00
11487;BME280;10510;47.942;9.442;2022-11-02T01:38:32;95275.22;;;6.81;100.00
11487;BME280;10510;47.942;9.442;2022-11-02T01:40:39;95270.00;;;6.81;100.00
11487;BME280;10510;47.942;9.442;2022-11-02T01:42:39;95267.41;;;6.81;100.00
11487;BME280;10510;47.942;9.442;2022-11-02T01:44:39;95270.00;;;6.81;100.00
11487;BME280;10510;47.942;9.442;2022-11-02T01:46:42;95270.53;;;6.85;100.00
11487;BME280;10510;47.942;9.442;2022-11-02T01:48:57;95265.34;;;6.85;100.00
11487;BME280;10510;47.942;9.442;2022-11-02T01:51:03;95275.72;;;6.85;100.00
11487;BME280;10510;47.942;9.442;2022-11-02T01:53:04;95276.69;;;6.84;100.00
11487;BME280;10510;47.942;9.442;2022-11-02T01:55:21;95272.47;;;6.83;100.00
11487;BME280;10510;47.942;9.442;2022-11-02T01:57:24;95264.81;;;6.81;100.00
11487;BME280;10510;47.942;9.442;2022-11-02T01:59:30;95269.38;;;6.79;100.00
11487;BME280;10510;47.942;9.442;2022-11-02T02:01:32;95271.00;;;6.80;100.00
11487;BME280;10510;47.942;9.442;2022-11-02T02:03:34;95265.28;;;6.77;100.00
11487;BME280;10510;47.942;9.442;2022-11-02T02:05:41;95264.59;;;6.75;100.00
11487;BME280;10510;47.942;9.442;2022-11-02T02:07:42;95274.16;;;6.74;100.00
11487;BME280;10510;47.942;9.442;2022-11-02T02:09:43;95281.28;;;6.72;100.00
11487;BME280;10510;47.942;9.442;2022-11-02T02:11:43;95275.41;;;6.70;100.00
11487;BME280;10510;47.942;9.442;2022-11-02T02:13:43;95280.59;;;6.70;100.00
11487;BME280;10510;47.942;9.442;2022-11-02T02:15:53;95279.78;;;6.70;100.00
11487;BME280;10510;47.942;9.442;2022-11-02T02:18:15;95275.25;;;6.72;100.00
11487;BME280;10510;47.942;9.442;2022-11-02T02:20:53;95269.25;;;6.71;100.00
11487;BME280;10510;47.942;9.442;2022-11-02T02:29:56;95254.44;;;6.81;100.00
11487;BME280;10510;47.942;9.442;2022-11-02T02:32:08;95248.00;;;6.86;100.00
11487;BME280;10510;47.942;9.442;2022-11-02T02:34:19;95247.53;;;6.90;100.00
11487;BME280;10510;47.942;9.442;2022-11-02T02:36:28;95242.56;;;6.97;100.00
11487;BME280;10510;47.942;9.442;2022-11-02T02:38:39;95244.75;;;7.01;100.00
11487;BME280;10510;47.942;9.442;2022-11-02T02:45:29;95238.88;;;7.17;100.00
11487;BME280;10510;47.942;9.442;2022-11-02T02:47:32;95241.06;;;7.22;100.00
11487;BME280;10510;47.942;9.442;2022-11-02T02:49:37;95243.34;;;7.25;100.00
11487;BME280;10510;47.942;9.442;2022-11-02T02:51:41;95246.34;;;7.30;100.00
11487;BME280;10510;47.942;9.442;2022-11-02T02:53:49;95240.66;;;7.35;100.00
11487;BME280;10510;47.942;9.442;2022-11-02T02:55:51;95237.13;;;7.36;100.00
11487;BME280;10510;47.942;9.442;2022-11-02T02:57:53;95245.28;;;7.41;100.00
11487;BME280;10510;47.942;9.442;2022-11-02T02:59:54;95234.56;;;7.44;100.00
11487;BME280;10510;47.942;9.442;2022-11-02T03:01:54;95235.41;;;7.44;100.00
11487;BME280;10510;47.942;9.442;2022-11-02T03:03:56;95234.28;;;7.47;100.00
11487;BME280;10510;47.942;9.442;2022-11-02T03:08:12;95237.25;;;7.52;100.00
11487;BME280;10510;47.942;9.442;2022-11-02T03:10:27;95246.84;;;7.51;100.00
11487;BME280;10510;47.942;9.442;2022-11-02T03:12:40;95243.25;;;7.53;100.00
11487;BME280;10510;47.942;9.442;2022-11-02T03:17:15;95235.22;;;7.64;100.00
11487;BME280;10510;47.942;9.442;2022-11-02T03:19:25;95232.69;;;7.72;100.00
11487;BME280;10510;47.942;9.442;2022-11-02T03:21:57;95236.19;;;7.81;100.00
11487;BME280;10510;47.942;9.442;2022-11-02T03:24:11;95233.78;;;7.87;100.00
11487;BME280;10510;47.942;9.442;2022-11-02T03:28:55;95240.75;;;8.05;100.00
11487;BME280;10510;47.942;9.442;2022-11-02T03:30:42;95237.22;;;8.14;100.00
11487;BME280;10510;47.942;9.442;2022-11-02T03:34:57;95230.81;;;8.34;100.00
11487;BME280;10510;47.942;9.442;2022-11-02T03:37:25;95238.72;;;8.43;100.00
11487;BME280;10510;47.942;9.442;2022-11-02T03:39:55;95242.63;;;8.47;100.00
11487;BME280;10510;47.942;9.442;2022-11-02T03:41:54;95231.75;;;8.51;100.00
11487;BME280;10510;47.942;9.442;2022-11-02T03:44:05;95238.28;;;8.55;100.00
11487;BME280;10510;47.942;9.442;2022-11-02T03:46:07;95233.28;;;8.62;100.00
11487;BME280;10510;47.942;9.442;2022-11-02T03:48:11;95223.97;;;8.68;100.00
11487;BME280;10510;47.942;9.442;2022-11-02T03:50:13;95233.13;;;8.72;100.00
11487;BME280;10510;47.942;9.442;2022-11-02T03:52:21;95234.44;;;8.76;100.00
11487;BME280;10510;47.942;9.442;2022-11-02T03:54:44;95228.91;;;8.79;100.00
11487;BME280;10510;47.942;9.442;2022-11-02T03:56:54;95224.22;;;8.82;100.00
11487;BME280;10510;47.942;9.442;2022-11-02T03:58:56;95232.53;;;8.86;100.00
11487;BME280;10510;47.942;9.442;2022-11-02T04:01:01;95243.47;;;8.90;100.00
11487;BME280;10510;47.942;9.442;2022-11-02T04:03:03;95248.38;;;8.93;100.00
11487;BME280;10510;47.942;9.442;2022-11-02T04:05:06;95243.97;;;8.93;100.00
11487;BME280;10510;47.942;9.442;2022-11-02T04:07:06;95233.22;;;8.96;100.00
11487;BME280;10510;47.942;9.442;2022-11-02T04:09:07;95247.91;;;8.97;100.00
11487;BME280;10510;47.942;9.442;2022-11-02T04:11:08;95247.91;;;8.97;100.00
11487;BME280;10510;47.942;9.442;2022-11-02T04:13:27;95248.53;;;8.99;100.00
11487;BME280;10510;47.942;9.442;2022-11-02T04:15:46;95244.97;;;9.00;100.00
11487;BME280;10510;47.942;9.442;2022-11-02T04:17:46;95255.41;;;9.00;100.00
11487;BME280;10510;47.942;9.442;2022-11-02T04:20:06;95268.25;;;9.02;100.00
11487;BME280;10510;47.942;9.442;2022-11-02T04:22:06;95259.47;;;9.03;100.00
11487;BME280;10510;47.942;9.442;2022-11-02T04:24:25;95261.91;;;9.04;100.00
11487;BME280;10510;47.942;9.442;2022-11-02T04:26:45;95271.38;;;9.05;100.00
11487;BME280;10510;47.942;9.442;2022-11-02T04:28:45;95267.00;;;9.06;100.00
11487;BME280;10510;47.942;9.442;2022-11-02T04:30:45;95272.03;;;9.07;100.00
11487;BME280;10510;47.942;9.442;2022-11-02T04:32:48;95272.84;;;9.08;100.00
11487;BME280;10510;47.942;9.442;2022-11-02T04:35:07;95276.13;;;9.10;100.00
11487;BME280;10510;47.942;9.442;2022-11-02T04:37:08;95284.59;;;9.12;100.00
11487;BME280;10510;47.942;9.442;2022-11-02T04:39:28;95279.22;;;9.14;100.00
11487;BME280;10510;47.942;9.442;2022-11-02T04:41:28;95286.72;;;9.17;100.00
11487;BME280;10510;47.942;9.442;2022-11-02T04:43:40;95290.00;;;9.19;100.00
11487;BME280;10510;47.942;9.442;2022-11-02T04:45:41;95290.66;;;9.21;100.00
11487;BME280;10510;47.942;9.442;2022-11-02T04:47:41;95292.28;;;9.22;100.00
11487;BME280;10510;47.942;9.442;2022-11-02T04:49:42;95289.34;;;9.25;100.00
11487;BME280;10510;47.942;9.442;2022-11-02T04:51:42;95284.16;;;9.25;100.00
11487;BME280;10510;47.942;9.442;2022-11-02T04:53:42;95282.19;;;9.27;100.00
11487;BME280;10510;47.942;9.442;2022-11-02T04:55:45;95272.41;;;9.29;100.00
11487;BME280;10510;47.942;9.442;2022-11-02T04:57:45;95279.91;;;9.32;100.00
11487;BME280;10510;47.942;9.442;2022-11-02T04:59:45;95274.53;;;9.33;100.00
11487;BME280;10510;47.942;9.442;2022-11-02T05:01:46;95278.78;;;9.35;100.00
11487;BME280;10510;47.942;9.442;2022-11-02T05:03:47;95279.44;;;9.37;100.00
11487;BME280;10510;47.942;9.442;2022-11-02T05:05:53;95270.50;;;9.39;100.00
11487;BME280;10510;47.942;9.442;2022-11-02T05:07:53;95274.72;;;9.40;100.00
11487;BME280;10510;47.942;9.442;2022-11-02T05:09:53;95271.16;;;9.41;100.00
11487;BME280;10510;47.942;9.442;2022-11-02T05:11:53;95271.78;;;9.43;100.00
11487;BME280;10510;47.942;9.442;2022-11-02T05:13:54;95275.88;;;9.46;100.00
11487;BME280;10510;47.942;9.442;2022-11-02T05:15:55;95267.06;;;9.47;100.00
11487;BME280;10510;47.942;9.442;2022-11-02T05:17:55;95267.91;;;9.47;100.00
11487;BME280;10510;47.942;9.442;2022-11-02T05:19:56;95271.13;;;9.49;100.00
11487;BME280;10510;47.942;9.442;2022-11-02T05:21:56;95269.19;;;9.51;100.00
11487;BME280;10510;47.942;9.442;2022-11-02T05:23:56;95265.59;;;9.52;100.00
11487;BME280;10510;47.942;9.442;2022-11-02T05:26:02;95266.25;;;9.54;100.00
11487;BME280;10510;47.942;9.442;2022-11-02T05:28:03;95272.16;;;9.57;100.00
11487;BME280;10510;47.942;9.442;2022-11-02T05:30:04;95270.34;;;9.57;100.00
11487;BME280;10510;47.942;9.442;2022-11-02T05:32:05;95276.38;;;9.58;100.00
11487;BME280;10510;47.942;9.442;2022-11-02T05:34:05;95283.22;;;9.59;100.00
11487;BME280;10510;47.942;9.442;2022-11-02T05:36:06;95271.00;;;9.59;100.00
11487;BME280;10510;47.942;9.442;2022-11-02T05:38:06;95285.69;;;9.60;100.00
11487;BME280;10510;47.942;9.442;2022-11-02T05:40:07;95289.09;;;9.61;100.00
11487;BME280;10510;47.942;9.442;2022-11-02T05:42:07;95290.09;;;9.60;100.00
11487;BME280;10510;47.942;9.442;2022-11-02T05:44:08;95291.88;;;9.59;100.00
11487;BME280;10510;47.942;9.442;2022-11-02T05:46:08;95282.25;;;9.60;100.00
11487;BME280;10510;47.942;9.442;2022-11-02T05:48:08;95284.06;;;9.59;100.00
11487;BME280;10510;47.942;9.442;2022-11-02T05:50:09;95293.50;;;9.60;100.00
11487;BME280;10510;47.942;9.442;2022-11-02T05:52:10;95292.69;;;9.60;100.00
11487;BME280;10510;47.942;9.442;2022-11-02T05:54:10;95298.56;;;9.62;100.00
11487;BME280;10510;47.942;9.442;2022-11-02T05:56:10;95305.56;;;9.61;100.00
11487;BME280;10510;47.942;9.442;2022-11-02T05:58:11;95298.56;;;9.62;100.00
11487;BME280;10510;47.942;9.442;2022-11-02T06:00:11;95297.59;;;9.63;100.00
11487;BME280;10510;47.942;9.442;2022-11-02T06:02:12;95289.75;;;9.63;100.00
11487;BME280;10510;47.942;9.442;2022-11-02T06:04:12;95293.19;;;9.63;100.00
11487;BME280;10510;47.942;9.442;2022-11-02T06:06:12;95302.81;;;9.63;100.00
11487;BME280;10510;47.942;9.442;2022-11-02T06:08:13;95304.75;;;9.61;100.00
11487;BME280;10510;47.942;9.442;2022-11-02T06:10:13;95301.47;;;9.59;100.00
11487;BME280;10510;47.942;9.442;2022-11-02T06:12:13;95307.03;;;9.55;100.00
11487;BME280;10510;47.942;9.442;2022-11-02T06:14:13;95309.16;;;9.52;100.00
11487;BME280;10510;47.942;9.442;2022-11-02T06:16:14;95323.31;;;9.49;100.00
11487;BME280;10510;47.942;9.442;2022-11-02T06:18:15;95325.44;;;9.46;100.00
11487;BME280;10510;47.942;9.442;2022-11-02T06:20:15;95323.97;;;9.43;100.00
11487;BME280;10510;47.942;9.442;2022-11-02T06:22:15;95329.50;;;9.40;100.00
11487;BME280;10510;47.942;9.442;2022-11-02T06:24:15;95335.03;;;9.37;100.00
11487;BME280;10510;47.942;9.442;2022-11-02T06:26:16;95333.41;;;9.36;100.00
11487;BME280;10510;47.942;9.442;2022-11-02T06:28:16;95334.53;;;9.33;100.00
11487;BME280;10510;47.942;9.442;2022-11-02T06:30:16;95333.72;;;9.33;100.00
11487;BME280;10510;47.942;9.442;2022-11-02T06:32:17;95339.28;;;9.30;100.00
11487;BME280;10510;47.942;9.442;2022-11-02T06:34:18;95341.88;;;9.30;100.00
11487;BME280;10510;47.942;9.442;2022-11-02T06:36:18;95347.25;;;9.28;100.00
11487;BME280;10510;47.942;9.442;2022-11-02T06:38:19;95351.63;;;9.28;100.00
11487;BME280;10510;47.942;9.442;2022-11-02T06:40:19;95356.03;;;9.27;100.00
11487;BME280;10510;47.942;9.442;2022-11-02T06:42:20;95349.03;;;9.28;100.00
11487;BME280;10510;47.942;9.442;2022-11-02T06:44:20;95357.66;;;9.28;100.00
11487;BME280;10510;47.942;9.442;2022-11-02T06:46:20;95354.25;;;9.28;100.00
11487;BME280;10510;47.942;9.442;2022-11-02T06:48:20;95364.69;;;9.28;100.00
11487;BME280;10510;47.942;9.442;2022-11-02T06:50:21;95361.25;;;9.27;100.00
11487;BME280;10510;47.942;9.442;2022-11-02T06:52:23;95358.66;;;9.27;100.00
11487;BME280;10510;47.942;9.442;2022-11-02T06:54:23;95362.22;;;9.26;100.00
11487;BME280;10510;47.942;9.442;2022-11-02T06:56:23;95360.59;;;9.25;100.00
11487;BME280;10510;47.942;9.442;2022-11-02T06:58:24;95364.00;;;9.26;100.00
11487;BME280;10510;47.942;9.442;2022-11-02T07:00:25;95371.84;;;9.26;100.00
11487;BME280;10510;47.942;9.442;2022-11-02T07:02:25;95373.63;;;9.25;100.00
11487;BME280;10510;47.942;9.442;2022-11-02T07:04:25;95378.72;;;9.27;100.00
11487;BME280;10510;47.942;9.442;2022-11-02T07:06:26;95377.72;;;9.28;100.00
11487;BME280;10510;47.942;9.442;2022-11-02T07:08:27;95377.09;;;9.34;100.00
11487;BME280;10510;47.942;9.442;2022-11-02T07:10:27;95384.97;;;9.42;100.00
11487;BME280;10510;47.942;9.442;2022-11-02T07:12:28;95383.03;;;9.52;100.00
11487;BME280;10510;47.942;9.442;2022-11-02T07:14:28;95389.59;;;9.65;100.00
11487;BME280;10510;47.942;9.442;2022-11-02T07:16:28;95385.03;;;9.75;100.00
11487;BME280;10510;47.942;9.442;2022-11-02T07:18:28;95391.09;;;9.84;100.00
11487;BME280;10510;47.942;9.442;2022-11-02T07:20:29;95393.75;;;9.92;100.00
11487;BME280;10510;47.942;9.442;2022-11-02T07:22:29;95386.88;;;9.99;100.00
11487;BME280;10510;47.942;9.442;2022-11-02T07:24:30;95392.25;;;10.06;100.00
11487;BME280;10510;47.942;9.442;2022-11-02T07:26:31;95398.81;;;10.10;100.00
11487;BME280;10510;47.942;9.442;2022-11-02T07:28:31;95404.53;;;10.13;100.00
11487;BME280;10510;47.942;9.442;2022-11-02T07:30:33;95405.81;;;10.17;100.00
11487;BME280;10510;47.942;9.442;2022-11-02T07:32:40;95415.00;;;10.21;100.00
11487;BME280;10510;47.942;9.442;2022-11-02T07:34:41;95404.38;;;10.23;100.00
11487;BME280;10510;47.942;9.442;2022-11-02T07:36:41;95407.63;;;10.25;100.00
11487;BME280;10510;47.942;9.442;2022-11-02T07:38:42;95406.53;;;10.28;100.00
11487;BME280;10510;47.942;9.442;2022-11-02T07:40:42;95406.34;;;10.29;100.00
11487;BME280;10510;47.942;9.442;2022-11-02T07:42:43;95407.03;;;10.31;100.00
11487;BME280;10510;47.942;9.442;2022-11-02T07:44:44;95407.69;;;10.33;100.00
11487;BME280;10510;47.942;9.442;2022-11-02T07:46:45;95406.69;;;10.34;100.00
11487;BME280;10510;47.942;9.442;2022-11-02T07:48:46;95409.78;;;10.38;100.00
11487;BME280;10510;47.942;9.442;2022-11-02T07:50:46;95408.19;;;10.45;100.00
11487;BME280;10510;47.942;9.442;2022-11-02T07:52:51;95411.44;;;10.55;100.00
11487;BME280;10510;47.942;9.442;2022-11-02T07:54:52;95406.38;;;10.62;100.00
11487;BME280;10510;47.942;9.442;2022-11-02T07:56:52;95409.78;;;10.71;100.00
11487;BME280;10510;47.942;9.442;2022-11-02T07:58:52;95409.94;;;10.77;100.00
11487;BME280;10510;47.942;9.442;2022-11-02T08:00:56;95407.16;;;10.87;100.00
11487;BME280;10510;47.942;9.442;2022-11-02T08:02:58;95407.63;;;10.90;100.00
11487;BME280;10510;47.942;9.442;2022-11-02T08:04:59;95411.03;;;10.99;100.00
11487;BME280;10510;47.942;9.442;2022-11-02T08:06:59;95412.97;;;11.13;100.00
11487;BME280;10510;47.942;9.442;2022-11-02T08:08:59;95409.53;;;11.21;100.00
11487;BME280;10510;47.942;9.442;2022-11-02T08:11:06;95403.63;;;11.27;100.00
11487;BME280;10510;47.942;9.442;2022-11-02T08:13:09;95399.31;;;11.34;100.00
11487;BME280;10510;47.942;9.442;2022-11-02T08:15:10;95394.38;;;11.48;100.00
11487;BME280;10510;47.942;9.442;2022-11-02T08:17:10;95412.56;;;11.80;100.00
11487;BME280;10510;47.942;9.442;2022-11-02T08:19:10;95408.59;;;11.93;100.00
11487;BME280;10510;47.942;9.442;2022-11-02T08:21:10;95409.69;;;11.98;100.00
11487;BME280;10510;47.942;9.442;2022-11-02T08:23:11;95403.75;;;12.04;100.00
11487;BME280;10510;47.942;9.442;2022-11-02T08:25:12;95415.16;;;12.12;100.00
11487;BME280;10510;47.942;9.442;2022-11-02T08:27:12;95419.44;;;12.13;100.00
11487;BME280;10510;47.942;9.442;2022-11-02T08:29:12;95419.31;;;12.06;100.00
11487;BME280;10510;47.942;9.442;2022-11-02T08:31:14;95423.59;;;11.99;100.00
11487;BME280;10510;47.942;9.442;2022-11-02T08:33:16;95422.44;;;12.01;100.00
11487;BME280;10510;47.942;9.442;2022-11-02T08:35:17;95425.84;;;12.10;100.00
11487;BME280;10510;47.942;9.442;2022-11-02T08:37:17;95421.34;;;12.19;100.00
11487;BME280;10510;47.942;9.442;2022-11-02T08:39:18;95417.88;;;12.26;100.00
11487;BME280;10510;47.942;9.442;2022-11-02T08:41:18;95416.81;;;12.36;100.00
11487;BME280;10510;47.942;9.442;2022-11-02T08:43:18;95424.84;;;12.34;100.00
11487;BME280;10510;47.942;9.442;2022-11-02T08:45:18;95425.19;;;12.31;100.00
11487;BME280;10510;47.942;9.442;2022-11-02T08:47:19;95433.91;;;12.23;100.00
11487;BME280;10510;47.942;9.442;2022-11-02T08:49:19;95432.75;;;12.26;100.00
11487;BME280;10510;47.942;9.442;2022-11-02T08:51:20;95437.03;;;12.27;100.00
11487;BME280;10510;47.942;9.442;2022-11-02T08:53:20;95432.31;;;12.22;100.00
11487;BME280;10510;47.942;9.442;2022-11-02T08:55:20;95429.88;;;12.21;100.00
11487;BME280;10510;47.942;9.442;2022-11-02T08:57:21;95432.84;;;12.18;100.00
11487;BME280;10510;47.942;9.442;2022-11-02T08:59:21;95427.75;;;12.16;100.00
11487;BME280;10510;47.942;9.442;2022-11-02T09:01:21;95433.50;;;12.12;100.00
11487;BME280;10510;47.942;9.442;2022-11-02T09:03:21;95430.41;;;12.08;100.00
11487;BME280;10510;47.942;9.442;2022-11-02T09:05:23;95433.56;;;12.03;100.00
11487;BME280;10510;47.942;9.442;2022-11-02T09:07:24;95431.47;;;11.99;100.00
11487;BME280;10510;47.942;9.442;2022-11-02T09:09:24;95432.81;;;11.95;100.00
11487;BME280;10510;47.942;9.442;2022-11-02T09:11:24;95430.19;;;11.95;100.00
11487;BME280;10510;47.942;9.442;2022-11-02T09:13:25;95423.28;;;11.94;100.00
11487;BME280;10510;47.942;9.442;2022-11-02T09:15:26;95425.91;;;11.94;100.00
11487;BME280;10510;47.942;9.442;2022-11-02T09:17:28;95426.09;;;11.92;100.00
11487;BME280;10510;47.942;9.442;2022-11-02T09:19:28;95428.19;;;11.97;100.00
11487;BME280;10510;47.942;9.442;2022-11-02T09:21:28;95421.28;;;12.04;100.00
11487;BME280;10510;47.942;9.442;2022-11-02T09:23:29;95429.09;;;12.12;100.00
11487;BME280;10510;47.942;9.442;2022-11-02T09:25:29;95419.75;;;12.18;100.00
11487;BME280;10510;47.942;9.442;2022-11-02T09:27:30;95417.69;;;12.28;100.00
11487;BME280;10510;47.942;9.442;2022-11-02T09:29:30;95421.19;;;12.43;100.00
11487;BME280;10510;47.942;9.442;2022-11-02T09:31:31;95414.25;;;12.50;100.00
11487;BME280;10510;47.942;9.442;2022-11-02T09:33:32;95416.53;;;12.54;100.00
11487;BME280;10510;47.942;9.442;2022-11-02T09:35:36;95415.16;;;12.58;100.00
11487;BME280;10510;47.942;9.442;2022-11-02T09:37:37;95425.75;;;12.64;100.00
11487;BME280;10510;47.942;9.442;2022-11-02T09:39:37;95426.16;;;12.76;100.00
11487;BME280;10510;47.942;9.442;2022-11-02T09:42:11;95429.72;;;12.98;100.00
11487;BME280;10510;47.942;9.442;2022-11-02T09:44:21;95433.75;;;13.09;100.00
11487;BME280;10510;47.942;9.442;2022-11-02T09:46:32;95438.63;;;13.12;100.00
11487;BME280;10510;47.942;9.442;2022-11-02T09:48:47;95429.66;;;13.06;100.00
11487;BME280;10510;47.942;9.442;2022-11-02T09:50:55;95439.44;;;13.12;100.00
11487;BME280;10510;47.942;9.442;2022-11-02T09:53:01;95437.06;;;13.17;100.00
11487;BME280;10510;47.942;9.442;2022-11-02T09:55:09;95438.78;;;13.10;100.00
11487;BME280;10510;47.942;9.442;2022-11-02T09:57:29;95439.44;;;13.12;100.00
11487;BME280;10510;47.942;9.442;2022-11-02T09:59:30;95441.69;;;13.15;100.00
11487;BME280;10510;47.942;9.442;2022-11-02T10:01:40;95446.53;;;13.27;100.00
11487;BME280;10510;47.942;9.442;2022-11-02T10:03:56;95445.19;;;13.31;100.00
11487;BME280;10510;47.942;9.442;2022-11-02T10:06:10;95449.25;;;13.33;100.00
11487;BME280;10510;47.942;9.442;2022-11-02T10:15:17;95461.97;;;13.22;100.00
11487;BME280;10510;47.942;9.442;2022-11-02T10:17:23;95455.28;;;13.19;100.00
11487;BME280;10510;47.942;9.442;2022-11-02T10:19:25;95456.28;;;13.18;100.00
11487;BME280;10510;47.942;9.442;2022-11-02T10:21:29;95453.56;;;13.26;100.00
11487;BME280;10510;47.942;9.442;2022-11-02T10:23:39;95457.22;;;13.25;100.00
11487;BME280;10510;47.942;9.442;2022-11-02T10:25:40;95453.91;;;13.23;100.00
11487;BME280;10510;47.942;9.442;2022-11-02T10:27:42;95458.81;;;13.26;100.00
11487;BME280;10510;47.942;9.442;2022-11-02T10:32:02;95458.84;;;13.41;100.00
11487;BME280;10510;47.942;9.442;2022-11-02T10:38:50;95449.19;;;13.42;100.00
11487;BME280;10510;47.942;9.442;2022-11-02T10:46:07;95438.94;;;13.32;100.00
11487;BME280;10510;47.942;9.442;2022-11-02T10:52:43;95445.88;;;13.25;100.00
11487;BME280;10510;47.942;9.442;2022-11-02T10:54:44;95438.66;;;13.27;100.00
11487;BME280;10510;47.942;9.442;2022-11-02T10:56:44;95440.94;;;13.30;100.00
11487;BME280;10510;47.942;9.442;2022-11-02T10:59:10;95443.19;;;13.33;100.00
11487;BME280;10510;47.942;9.442;2022-11-02T11:01:12;95435.50;;;13.31;100.00
11487;BME280;10510;47.942;9.442;2022-11-02T11:03:14;95440.28;;;13.28;100.00
11487;BME280;10510;47.942;9.442;2022-11-02T11:05:18;95436.66;;;13.29;100.00
11487;BME280;10510;47.942;9.442;2022-11-02T11:07:25;95429.44;;;13.31;100.00
11487;BME280;10510;47.942;9.442;2022-11-02T11:09:59;95419.28;;;13.28;100.00
11487;BME280;10510;47.942;9.442;2022-11-02T11:12:04;95414.44;;;13.16;100.00
11487;BME280;10510;47.942;9.442;2022-11-02T11:14:15;95415.81;;;13.12;100.00
11487;BME280;10510;47.942;9.442;2022-11-02T11:16:16;95410.56;;;13.12;100.00
11487;BME280;10510;47.942;9.442;2022-11-02T11:18:18;95409.03;;;13.18;100.00
11487;BME280;10510;47.942;9.442;2022-11-02T11:20:30;95407.34;;;13.25;100.00
11487;BME280;10510;47.942;9.442;2022-11-02T11:22:38;95393.03;;;13.28;100.00
11487;BME280;10510;47.942;9.442;2022-11-02T11:24:39;95400.84;;;13.36;100.00
11487;BME280;10510;47.942;9.442;2022-11-02T11:26:39;95401.34;;;13.46;100.00
11487;BME280;10510;47.942;9.442;2022-11-02T11:28:56;95410.25;;;13.45;100.00
11487;BME280;10510;47.942;9.442;2022-11-02T11:31:12;95405.97;;;13.44;100.00
11487;BME280;10510;47.942;9.442;2022-11-02T11:33:15;95395.75;;;13.34;100.00
11487;BME280;10510;47.942;9.442;2022-11-02T11:35:18;95409.59;;;13.28;100.00
11487;BME280;10510;47.942;9.442;2022-11-02T11:37:19;95407.97;;;13.27;100.00